Savannah, Georgia
Current Conditions -  °F | °C
As of 4:58 PM on Thursday 23 Oct 2014 (Local Time) from KSVN Reporting Station
Clear Clear  
Wind Chill: 71°   Ceiling: Unl
Heat Index: 71°   Visibility: 10mi
Dew Point: 47°   Wind: 7mph
Humidity: 42%   Direction: 300°WNW
Pressure: 29.98"   Gusts: NA
Location:  32.08°N, 81.09°W
Report Text: KSVN 232058Z AUTO 30006KT 10SM CLR 22/08 A2998 RMK AO2 SLP155 T02170081 56015
Loading
Personal Weather Stations






























Interactive Weather Map
Tropical Storm Tracking
New forecast layout! Learn more

10-Day Weather Forecast

Advertisements
Track Severe Weather on mobile